sensor_id;sensor_type;location;lat;lon;timestamp;P1;durP1;ratioP1;P2;durP2;ratioP2
83423;SDS011;73355;49.044;8.686;2023-12-22T00:00:57;4.82;;;0.73;;
83423;SDS011;73355;49.044;8.686;2023-12-22T00:03:22;1.97;;;0.70;;
83423;SDS011;73355;49.044;8.686;2023-12-22T00:05:47;0.88;;;0.30;;
83423;SDS011;73355;49.044;8.686;2023-12-22T00:08:13;1.53;;;0.60;;
83423;SDS011;73355;49.044;8.686;2023-12-22T00:10:38;2.40;;;0.73;;
83423;SDS011;73355;49.044;8.686;2023-12-22T00:13:03;2.85;;;0.70;;
83423;SDS011;73355;49.044;8.686;2023-12-22T00:15:29;3.40;;;0.60;;
83423;SDS011;73355;49.044;8.686;2023-12-22T00:17:54;1.25;;;0.43;;
83423;SDS011;73355;49.044;8.686;2023-12-22T00:20:20;1.08;;;0.40;;
83423;SDS011;73355;49.044;8.686;2023-12-22T00:22:46;2.53;;;0.70;;
83423;SDS011;73355;49.044;8.686;2023-12-22T00:25:11;1.63;;;0.63;;
83423;SDS011;73355;49.044;8.686;2023-12-22T00:27:36;2.15;;;0.40;;
83423;SDS011;73355;49.044;8.686;2023-12-22T00:30:02;1.02;;;0.25;;
83423;SDS011;73355;49.044;8.686;2023-12-22T00:32:27;1.42;;;0.38;;
83423;SDS011;73355;49.044;8.686;2023-12-22T00:34:53;0.73;;;0.30;;
83423;SDS011;73355;49.044;8.686;2023-12-22T00:37:18;2.60;;;0.63;;
83423;SDS011;73355;49.044;8.686;2023-12-22T00:39:43;2.78;;;0.45;;
83423;SDS011;73355;49.044;8.686;2023-12-22T00:42:09;3.42;;;0.50;;
83423;SDS011;73355;49.044;8.686;2023-12-22T00:44:34;2.13;;;0.60;;
83423;SDS011;73355;49.044;8.686;2023-12-22T00:46:59;0.77;;;0.40;;
83423;SDS011;73355;49.044;8.686;2023-12-22T00:49:25;1.73;;;0.47;;
83423;SDS011;73355;49.044;8.686;2023-12-22T00:51:50;1.77;;;0.50;;
83423;SDS011;73355;49.044;8.686;2023-12-22T00:54:15;3.00;;;0.77;;
83423;SDS011;73355;49.044;8.686;2023-12-22T00:56:41;1.58;;;0.32;;
83423;SDS011;73355;49.044;8.686;2023-12-22T00:59:06;1.85;;;0.38;;
83423;SDS011;73355;49.044;8.686;2023-12-22T01:01:32;2.78;;;0.57;;
83423;SDS011;73355;49.044;8.686;2023-12-22T01:03:57;2.83;;;0.45;;
83423;SDS011;73355;49.044;8.686;2023-12-22T01:06:22;1.20;;;0.40;;
83423;SDS011;73355;49.044;8.686;2023-12-22T01:08:48;2.58;;;0.50;;
83423;SDS011;73355;49.044;8.686;2023-12-22T01:11:15;1.38;;;0.45;;
83423;SDS011;73355;49.044;8.686;2023-12-22T01:13:43;7.88;;;1.00;;
83423;SDS011;73355;49.044;8.686;2023-12-22T01:16:09;4.47;;;0.60;;
83423;SDS011;73355;49.044;8.686;2023-12-22T01:18:34;1.42;;;0.50;;
83423;SDS011;73355;49.044;8.686;2023-12-22T01:21:00;1.85;;;0.70;;
83423;SDS011;73355;49.044;8.686;2023-12-22T01:23:25;6.03;;;0.77;;
83423;SDS011;73355;49.044;8.686;2023-12-22T01:25:51;5.47;;;0.50;;
83423;SDS011;73355;49.044;8.686;2023-12-22T01:28:16;3.13;;;0.63;;
83423;SDS011;73355;49.044;8.686;2023-12-22T01:30:42;2.67;;;0.52;;
83423;SDS011;73355;49.044;8.686;2023-12-22T01:33:07;2.90;;;0.60;;
83423;SDS011;73355;49.044;8.686;2023-12-22T01:35:32;2.63;;;0.60;;
83423;SDS011;73355;49.044;8.686;2023-12-22T01:37:58;1.47;;;0.40;;
83423;SDS011;73355;49.044;8.686;2023-12-22T01:40:23;2.67;;;0.73;;
83423;SDS011;73355;49.044;8.686;2023-12-22T01:42:49;15.45;;;1.58;;
83423;SDS011;73355;49.044;8.686;2023-12-22T01:45:14;2.63;;;0.50;;
83423;SDS011;73355;49.044;8.686;2023-12-22T01:47:39;1.85;;;0.60;;
83423;SDS011;73355;49.044;8.686;2023-12-22T01:50:05;3.47;;;0.65;;
83423;SDS011;73355;49.044;8.686;2023-12-22T01:52:31;4.03;;;0.73;;
83423;SDS011;73355;49.044;8.686;2023-12-22T01:54:57;2.55;;;0.47;;
83423;SDS011;73355;49.044;8.686;2023-12-22T01:57:22;1.85;;;0.50;;
83423;SDS011;73355;49.044;8.686;2023-12-22T01:59:48;3.27;;;0.40;;
83423;SDS011;73355;49.044;8.686;2023-12-22T02:02:13;4.43;;;0.50;;
83423;SDS011;73355;49.044;8.686;2023-12-22T02:04:39;1.25;;;0.30;;
83423;SDS011;73355;49.044;8.686;2023-12-22T02:07:05;1.52;;;0.50;;
83423;SDS011;73355;49.044;8.686;2023-12-22T02:09:33;3.53;;;0.32;;
83423;SDS011;73355;49.044;8.686;2023-12-22T02:11:59;3.22;;;0.50;;
83423;SDS011;73355;49.044;8.686;2023-12-22T02:14:24;0.73;;;0.40;;
83423;SDS011;73355;49.044;8.686;2023-12-22T02:19:43;1.17;;;0.28;;
83423;SDS011;73355;49.044;8.686;2023-12-22T02:22:11;1.52;;;0.30;;
83423;SDS011;73355;49.044;8.686;2023-12-22T02:24:37;4.03;;;0.82;;
83423;SDS011;73355;49.044;8.686;2023-12-22T02:27:04;1.77;;;0.40;;
83423;SDS011;73355;49.044;8.686;2023-12-22T02:29:35;1.42;;;0.43;;
83423;SDS011;73355;49.044;8.686;2023-12-22T02:32:04;2.33;;;0.73;;
83423;SDS011;73355;49.044;8.686;2023-12-22T02:34:35;2.08;;;0.45;;
83423;SDS011;73355;49.044;8.686;2023-12-22T02:37:05;0.60;;;0.25;;
83423;SDS011;73355;49.044;8.686;2023-12-22T02:39:33;1.25;;;0.60;;
83423;SDS011;73355;49.044;8.686;2023-12-22T02:42:02;2.15;;;0.52;;
83423;SDS011;73355;49.044;8.686;2023-12-22T02:44:30;1.45;;;0.30;;
83423;SDS011;73355;49.044;8.686;2023-12-22T02:46:56;0.90;;;0.32;;
83423;SDS011;73355;49.044;8.686;2023-12-22T02:49:23;0.98;;;0.20;;
83423;SDS011;73355;49.044;8.686;2023-12-22T02:51:48;0.50;;;0.30;;
83423;SDS011;73355;49.044;8.686;2023-12-22T02:54:13;0.90;;;0.20;;
83423;SDS011;73355;49.044;8.686;2023-12-22T02:56:39;5.95;;;0.50;;
83423;SDS011;73355;49.044;8.686;2023-12-22T02:59:04;3.20;;;0.90;;
83423;SDS011;73355;49.044;8.686;2023-12-22T03:01:29;2.08;;;0.40;;
83423;SDS011;73355;49.044;8.686;2023-12-22T03:03:55;2.00;;;0.38;;
83423;SDS011;73355;49.044;8.686;2023-12-22T03:06:20;0.90;;;0.47;;
83423;SDS011;73355;49.044;8.686;2023-12-22T03:08:45;2.33;;;0.40;;
83423;SDS011;73355;49.044;8.686;2023-12-22T03:11:10;1.13;;;0.37;;
83423;SDS011;73355;49.044;8.686;2023-12-22T03:13:36;0.80;;;0.30;;
83423;SDS011;73355;49.044;8.686;2023-12-22T03:16:01;1.60;;;0.50;;
83423;SDS011;73355;49.044;8.686;2023-12-22T03:18:27;2.03;;;0.43;;
83423;SDS011;73355;49.044;8.686;2023-12-22T03:20:52;1.30;;;0.50;;
83423;SDS011;73355;49.044;8.686;2023-12-22T03:23:17;1.10;;;0.40;;
83423;SDS011;73355;49.044;8.686;2023-12-22T03:25:42;1.87;;;0.70;;
83423;SDS011;73355;49.044;8.686;2023-12-22T03:28:08;0.83;;;0.30;;
83423;SDS011;73355;49.044;8.686;2023-12-22T03:30:33;1.77;;;0.50;;
83423;SDS011;73355;49.044;8.686;2023-12-22T03:33:00;3.13;;;0.55;;
83423;SDS011;73355;49.044;8.686;2023-12-22T03:35:26;5.38;;;0.82;;
83423;SDS011;73355;49.044;8.686;2023-12-22T03:37:51;1.88;;;0.50;;
83423;SDS011;73355;49.044;8.686;2023-12-22T03:40:17;2.30;;;0.33;;
83423;SDS011;73355;49.044;8.686;2023-12-22T03:42:42;8.13;;;1.00;;
83423;SDS011;73355;49.044;8.686;2023-12-22T03:45:07;1.70;;;0.50;;
83423;SDS011;73355;49.044;8.686;2023-12-22T03:47:33;2.22;;;0.55;;
83423;SDS011;73355;49.044;8.686;2023-12-22T03:49:58;1.40;;;0.40;;
83423;SDS011;73355;49.044;8.686;2023-12-22T03:52:24;5.18;;;0.70;;
83423;SDS011;73355;49.044;8.686;2023-12-22T03:54:49;2.50;;;0.50;;
83423;SDS011;73355;49.044;8.686;2023-12-22T03:57:14;2.07;;;0.63;;
83423;SDS011;73355;49.044;8.686;2023-12-22T03:59:39;2.87;;;0.50;;
83423;SDS011;73355;49.044;8.686;2023-12-22T04:02:05;8.03;;;0.67;;
83423;SDS011;73355;49.044;8.686;2023-12-22T04:04:30;2.70;;;0.52;;
83423;SDS011;73355;49.044;8.686;2023-12-22T04:06:56;1.85;;;0.52;;
83423;SDS011;73355;49.044;8.686;2023-12-22T04:09:21;2.23;;;0.50;;
83423;SDS011;73355;49.044;8.686;2023-12-22T04:11:47;1.70;;;0.70;;
83423;SDS011;73355;49.044;8.686;2023-12-22T04:14:12;2.45;;;0.63;;
83423;SDS011;73355;49.044;8.686;2023-12-22T04:16:37;2.77;;;0.40;;
83423;SDS011;73355;49.044;8.686;2023-12-22T04:19:03;1.77;;;1.20;;
83423;SDS011;73355;49.044;8.686;2023-12-22T04:21:28;1.20;;;0.25;;
83423;SDS011;73355;49.044;8.686;2023-12-22T04:23:54;2.90;;;0.87;;
83423;SDS011;73355;49.044;8.686;2023-12-22T04:26:19;3.67;;;0.70;;
83423;SDS011;73355;49.044;8.686;2023-12-22T04:28:44;2.90;;;0.80;;
83423;SDS011;73355;49.044;8.686;2023-12-22T04:31:10;3.40;;;0.40;;
83423;SDS011;73355;49.044;8.686;2023-12-22T04:33:35;3.47;;;0.70;;
83423;SDS011;73355;49.044;8.686;2023-12-22T04:36:00;2.63;;;0.80;;
83423;SDS011;73355;49.044;8.686;2023-12-22T04:38:25;1.67;;;0.40;;
83423;SDS011;73355;49.044;8.686;2023-12-22T04:40:51;1.55;;;0.35;;
83423;SDS011;73355;49.044;8.686;2023-12-22T04:43:16;2.93;;;0.67;;
83423;SDS011;73355;49.044;8.686;2023-12-22T04:45:41;4.07;;;0.97;;
83423;SDS011;73355;49.044;8.686;2023-12-22T04:48:07;6.80;;;1.47;;
83423;SDS011;73355;49.044;8.686;2023-12-22T04:50:32;5.00;;;0.93;;
83423;SDS011;73355;49.044;8.686;2023-12-22T04:52:57;3.37;;;0.80;;
83423;SDS011;73355;49.044;8.686;2023-12-22T04:55:23;2.47;;;0.50;;
83423;SDS011;73355;49.044;8.686;2023-12-22T04:57:48;1.15;;;0.45;;
83423;SDS011;73355;49.044;8.686;2023-12-22T05:00:13;3.03;;;0.60;;
83423;SDS011;73355;49.044;8.686;2023-12-22T05:02:39;5.10;;;0.80;;
83423;SDS011;73355;49.044;8.686;2023-12-22T05:05:04;1.73;;;0.57;;
83423;SDS011;73355;49.044;8.686;2023-12-22T05:07:30;3.00;;;0.57;;
83423;SDS011;73355;49.044;8.686;2023-12-22T05:09:56;1.63;;;0.30;;
83423;SDS011;73355;49.044;8.686;2023-12-22T05:12:21;1.23;;;0.47;;
83423;SDS011;73355;49.044;8.686;2023-12-22T05:14:46;4.07;;;0.53;;
83423;SDS011;73355;49.044;8.686;2023-12-22T05:17:12;4.80;;;0.80;;
83423;SDS011;73355;49.044;8.686;2023-12-22T05:19:37;4.00;;;0.63;;
83423;SDS011;73355;49.044;8.686;2023-12-22T05:22:03;3.67;;;0.95;;
83423;SDS011;73355;49.044;8.686;2023-12-22T05:24:28;5.03;;;1.15;;
83423;SDS011;73355;49.044;8.686;2023-12-22T05:26:54;2.50;;;0.70;;
83423;SDS011;73355;49.044;8.686;2023-12-22T05:29:19;3.05;;;0.40;;
83423;SDS011;73355;49.044;8.686;2023-12-22T05:31:44;3.28;;;0.88;;
83423;SDS011;73355;49.044;8.686;2023-12-22T05:34:10;0.97;;;0.50;;
83423;SDS011;73355;49.044;8.686;2023-12-22T05:36:35;3.08;;;0.75;;
83423;SDS011;73355;49.044;8.686;2023-12-22T05:39:01;3.63;;;1.00;;
83423;SDS011;73355;49.044;8.686;2023-12-22T05:41:26;5.35;;;0.95;;
83423;SDS011;73355;49.044;8.686;2023-12-22T05:43:51;2.97;;;1.07;;
83423;SDS011;73355;49.044;8.686;2023-12-22T05:46:17;6.88;;;0.98;;
83423;SDS011;73355;49.044;8.686;2023-12-22T05:48:43;2.03;;;0.73;;
83423;SDS011;73355;49.044;8.686;2023-12-22T05:51:08;4.07;;;0.90;;
83423;SDS011;73355;49.044;8.686;2023-12-22T05:53:38;4.07;;;0.80;;
83423;SDS011;73355;49.044;8.686;2023-12-22T05:56:05;5.00;;;0.68;;
83423;SDS011;73355;49.044;8.686;2023-12-22T05:58:31;4.75;;;0.95;;
83423;SDS011;73355;49.044;8.686;2023-12-22T06:00:56;6.40;;;1.00;;
83423;SDS011;73355;49.044;8.686;2023-12-22T06:03:21;4.17;;;0.73;;
83423;SDS011;73355;49.044;8.686;2023-12-22T06:05:47;4.53;;;1.13;;
83423;SDS011;73355;49.044;8.686;2023-12-22T06:08:13;3.33;;;1.05;;
83423;SDS011;73355;49.044;8.686;2023-12-22T06:10:38;7.77;;;1.20;;
83423;SDS011;73355;49.044;8.686;2023-12-22T06:13:03;4.97;;;0.75;;
83423;SDS011;73355;49.044;8.686;2023-12-22T06:15:30;5.38;;;1.00;;
83423;SDS011;73355;49.044;8.686;2023-12-22T06:17:55;8.47;;;1.67;;
83423;SDS011;73355;49.044;8.686;2023-12-22T06:20:21;5.80;;;1.07;;
83423;SDS011;73355;49.044;8.686;2023-12-22T06:22:46;4.88;;;1.05;;
83423;SDS011;73355;49.044;8.686;2023-12-22T06:25:11;5.00;;;0.67;;
83423;SDS011;73355;49.044;8.686;2023-12-22T06:27:37;5.80;;;0.90;;
83423;SDS011;73355;49.044;8.686;2023-12-22T06:30:03;2.77;;;0.70;;
83423;SDS011;73355;49.044;8.686;2023-12-22T06:32:29;4.10;;;0.80;;
83423;SDS011;73355;49.044;8.686;2023-12-22T06:34:55;3.17;;;0.80;;
83423;SDS011;73355;49.044;8.686;2023-12-22T06:37:20;2.40;;;0.80;;
83423;SDS011;73355;49.044;8.686;2023-12-22T06:39:45;3.17;;;1.03;;
83423;SDS011;73355;49.044;8.686;2023-12-22T06:42:11;4.53;;;0.90;;
83423;SDS011;73355;49.044;8.686;2023-12-22T06:44:37;6.97;;;1.58;;
83423;SDS011;73355;49.044;8.686;2023-12-22T06:47:03;2.95;;;0.88;;
83423;SDS011;73355;49.044;8.686;2023-12-22T06:49:28;4.07;;;0.80;;
83423;SDS011;73355;49.044;8.686;2023-12-22T06:51:54;2.22;;;0.65;;
83423;SDS011;73355;49.044;8.686;2023-12-22T06:54:19;2.93;;;1.00;;
83423;SDS011;73355;49.044;8.686;2023-12-22T06:56:44;3.03;;;0.70;;
83423;SDS011;73355;49.044;8.686;2023-12-22T06:59:09;5.35;;;1.00;;
83423;SDS011;73355;49.044;8.686;2023-12-22T07:01:37;3.85;;;0.80;;
83423;SDS011;73355;49.044;8.686;2023-12-22T07:04:02;1.23;;;0.50;;
83423;SDS011;73355;49.044;8.686;2023-12-22T07:06:29;2.70;;;1.00;;
83423;SDS011;73355;49.044;8.686;2023-12-22T07:14:09;3.53;;;0.80;;
83423;SDS011;73355;49.044;8.686;2023-12-22T07:16:35;4.60;;;1.05;;
83423;SDS011;73355;49.044;8.686;2023-12-22T07:19:01;4.38;;;1.20;;
83423;SDS011;73355;49.044;8.686;2023-12-22T07:21:26;3.38;;;0.93;;
83423;SDS011;73355;49.044;8.686;2023-12-22T07:23:52;3.72;;;0.93;;
83423;SDS011;73355;49.044;8.686;2023-12-22T07:26:17;4.43;;;0.77;;
83423;SDS011;73355;49.044;8.686;2023-12-22T07:28:42;5.93;;;1.10;;
83423;SDS011;73355;49.044;8.686;2023-12-22T07:31:08;3.93;;;0.90;;
83423;SDS011;73355;49.044;8.686;2023-12-22T07:33:33;5.90;;;1.30;;
83423;SDS011;73355;49.044;8.686;2023-12-22T07:35:58;5.10;;;1.33;;
83423;SDS011;73355;49.044;8.686;2023-12-22T07:38:24;4.40;;;1.23;;
83423;SDS011;73355;49.044;8.686;2023-12-22T07:40:49;7.13;;;1.50;;
83423;SDS011;73355;49.044;8.686;2023-12-22T07:43:14;6.93;;;1.27;;
83423;SDS011;73355;49.044;8.686;2023-12-22T07:45:40;5.63;;;1.40;;
83423;SDS011;73355;49.044;8.686;2023-12-22T07:48:06;6.22;;;1.17;;
83423;SDS011;73355;49.044;8.686;2023-12-22T07:50:32;4.32;;;0.90;;
83423;SDS011;73355;49.044;8.686;2023-12-22T07:52:57;6.93;;;2.05;;
83423;SDS011;73355;49.044;8.686;2023-12-22T07:55:23;4.00;;;1.00;;
83423;SDS011;73355;49.044;8.686;2023-12-22T07:57:49;7.15;;;1.08;;
83423;SDS011;73355;49.044;8.686;2023-12-22T08:02:41;4.18;;;0.85;;
83423;SDS011;73355;49.044;8.686;2023-12-22T08:05:06;3.40;;;1.10;;
83423;SDS011;73355;49.044;8.686;2023-12-22T08:07:31;6.30;;;1.33;;
83423;SDS011;73355;49.044;8.686;2023-12-22T08:09:57;6.27;;;1.27;;
83423;SDS011;73355;49.044;8.686;2023-12-22T08:12:22;5.07;;;0.97;;
83423;SDS011;73355;49.044;8.686;2023-12-22T08:14:48;8.00;;;1.65;;
83423;SDS011;73355;49.044;8.686;2023-12-22T08:17:13;6.03;;;1.60;;
83423;SDS011;73355;49.044;8.686;2023-12-22T08:19:38;9.00;;;1.23;;
83423;SDS011;73355;49.044;8.686;2023-12-22T08:22:08;9.00;;;2.15;;
83423;SDS011;73355;49.044;8.686;2023-12-22T08:24:38;2.03;;;0.75;;
83423;SDS011;73355;49.044;8.686;2023-12-22T08:27:04;5.55;;;1.17;;
83423;SDS011;73355;49.044;8.686;2023-12-22T08:29:31;6.45;;;1.20;;
83423;SDS011;73355;49.044;8.686;2023-12-22T08:31:56;7.43;;;1.35;;
83423;SDS011;73355;49.044;8.686;2023-12-22T08:34:21;10.07;;;1.80;;
83423;SDS011;73355;49.044;8.686;2023-12-22T08:36:47;5.57;;;1.17;;
83423;SDS011;73355;49.044;8.686;2023-12-22T08:39:12;7.27;;;1.37;;
83423;SDS011;73355;49.044;8.686;2023-12-22T08:41:37;6.27;;;1.57;;
83423;SDS011;73355;49.044;8.686;2023-12-22T08:44:04;9.85;;;1.27;;
83423;SDS011;73355;49.044;8.686;2023-12-22T08:46:30;7.78;;;1.45;;
83423;SDS011;73355;49.044;8.686;2023-12-22T08:48:56;7.70;;;1.25;;
83423;SDS011;73355;49.044;8.686;2023-12-22T08:51:22;5.55;;;1.58;;
83423;SDS011;73355;49.044;8.686;2023-12-22T08:53:47;7.90;;;2.00;;
83423;SDS011;73355;49.044;8.686;2023-12-22T08:56:12;12.00;;;1.70;;
83423;SDS011;73355;49.044;8.686;2023-12-22T08:58:38;7.87;;;1.73;;
83423;SDS011;73355;49.044;8.686;2023-12-22T09:01:03;7.40;;;1.43;;
83423;SDS011;73355;49.044;8.686;2023-12-22T09:03:29;6.85;;;1.52;;
83423;SDS011;73355;49.044;8.686;2023-12-22T09:05:57;8.98;;;1.20;;
83423;SDS011;73355;49.044;8.686;2023-12-22T09:08:22;9.05;;;1.65;;
83423;SDS011;73355;49.044;8.686;2023-12-22T09:10:48;12.80;;;2.00;;
83423;SDS011;73355;49.044;8.686;2023-12-22T09:13:14;9.70;;;1.67;;
83423;SDS011;73355;49.044;8.686;2023-12-22T09:15:40;7.47;;;2.78;;
83423;SDS011;73355;49.044;8.686;2023-12-22T09:18:06;10.70;;;1.92;;
83423;SDS011;73355;49.044;8.686;2023-12-22T09:20:32;7.78;;;1.73;;
83423;SDS011;73355;49.044;8.686;2023-12-22T09:22:57;8.50;;;1.38;;
83423;SDS011;73355;49.044;8.686;2023-12-22T09:25:23;7.13;;;1.08;;
83423;SDS011;73355;49.044;8.686;2023-12-22T09:27:49;9.95;;;2.10;;
83423;SDS011;73355;49.044;8.686;2023-12-22T09:30:14;8.17;;;1.10;;
83423;SDS011;73355;49.044;8.686;2023-12-22T09:32:40;7.93;;;1.10;;
83423;SDS011;73355;49.044;8.686;2023-12-22T09:35:05;6.13;;;1.90;;
83423;SDS011;73355;49.044;8.686;2023-12-22T09:37:31;4.57;;;0.93;;
83423;SDS011;73355;49.044;8.686;2023-12-22T09:39:56;5.70;;;1.77;;
83423;SDS011;73355;49.044;8.686;2023-12-22T09:42:21;5.95;;;1.10;;
83423;SDS011;73355;49.044;8.686;2023-12-22T09:44:50;10.70;;;1.90;;
83423;SDS011;73355;49.044;8.686;2023-12-22T09:47:19;7.85;;;1.63;;
83423;SDS011;73355;49.044;8.686;2023-12-22T09:49:44;6.35;;;1.35;;
83423;SDS011;73355;49.044;8.686;2023-12-22T09:52:11;7.68;;;1.20;;
83423;SDS011;73355;49.044;8.686;2023-12-22T09:54:38;5.10;;;1.27;;
83423;SDS011;73355;49.044;8.686;2023-12-22T09:57:05;10.00;;;1.73;;
83423;SDS011;73355;49.044;8.686;2023-12-22T09:59:31;8.20;;;1.65;;
83423;SDS011;73355;49.044;8.686;2023-12-22T10:01:58;4.60;;;1.05;;
83423;SDS011;73355;49.044;8.686;2023-12-22T10:04:27;3.88;;;0.88;;
83423;SDS011;73355;49.044;8.686;2023-12-22T10:06:52;8.05;;;1.27;;
83423;SDS011;73355;49.044;8.686;2023-12-22T10:09:22;6.80;;;1.20;;
83423;SDS011;73355;49.044;8.686;2023-12-22T10:11:49;7.40;;;1.23;;
83423;SDS011;73355;49.044;8.686;2023-12-22T10:14:18;8.60;;;1.35;;
83423;SDS011;73355;49.044;8.686;2023-12-22T10:16:48;8.40;;;1.50;;
83423;SDS011;73355;49.044;8.686;2023-12-22T10:19:14;9.82;;;1.27;;
83423;SDS011;73355;49.044;8.686;2023-12-22T10:21:40;9.27;;;1.40;;
83423;SDS011;73355;49.044;8.686;2023-12-22T10:24:05;3.30;;;1.10;;
83423;SDS011;73355;49.044;8.686;2023-12-22T10:26:30;9.50;;;1.47;;
83423;SDS011;73355;49.044;8.686;2023-12-22T10:28:56;8.82;;;1.58;;
83423;SDS011;73355;49.044;8.686;2023-12-22T10:31:21;8.30;;;2.05;;
83423;SDS011;73355;49.044;8.686;2023-12-22T10:33:47;5.22;;;1.40;;
83423;SDS011;73355;49.044;8.686;2023-12-22T10:36:13;5.20;;;1.13;;
83423;SDS011;73355;49.044;8.686;2023-12-22T10:38:39;9.57;;;1.90;;
83423;SDS011;73355;49.044;8.686;2023-12-22T10:41:05;10.90;;;1.85;;
83423;SDS011;73355;49.044;8.686;2023-12-22T10:43:36;7.28;;;1.60;;
83423;SDS011;73355;49.044;8.686;2023-12-22T10:46:03;9.98;;;2.08;;
83423;SDS011;73355;49.044;8.686;2023-12-22T10:48:28;8.82;;;1.40;;
83423;SDS011;73355;49.044;8.686;2023-12-22T10:50:54;5.47;;;1.27;;
83423;SDS011;73355;49.044;8.686;2023-12-22T10:53:20;9.75;;;1.60;;
83423;SDS011;73355;49.044;8.686;2023-12-22T10:55:46;10.95;;;2.10;;
83423;SDS011;73355;49.044;8.686;2023-12-22T10:58:15;6.82;;;1.25;;
83423;SDS011;73355;49.044;8.686;2023-12-22T11:00:41;10.35;;;1.52;;
83423;SDS011;73355;49.044;8.686;2023-12-22T11:03:10;8.88;;;1.88;;
83423;SDS011;73355;49.044;8.686;2023-12-22T11:05:43;8.73;;;1.27;;
83423;SDS011;73355;49.044;8.686;2023-12-22T11:08:11;3.65;;;1.00;;
83423;SDS011;73355;49.044;8.686;2023-12-22T11:10:37;8.93;;;1.90;;
83423;SDS011;73355;49.044;8.686;2023-12-22T11:13:08;5.85;;;1.65;;
83423;SDS011;73355;49.044;8.686;2023-12-22T11:18:00;3.80;;;1.15;;
83423;SDS011;73355;49.044;8.686;2023-12-22T11:20:26;7.43;;;1.45;;
83423;SDS011;73355;49.044;8.686;2023-12-22T11:22:53;7.00;;;1.00;;
83423;SDS011;73355;49.044;8.686;2023-12-22T11:25:21;8.88;;;1.88;;
83423;SDS011;73355;49.044;8.686;2023-12-22T11:27:47;6.97;;;1.40;;
83423;SDS011;73355;49.044;8.686;2023-12-22T11:30:14;6.72;;;1.42;;
83423;SDS011;73355;49.044;8.686;2023-12-22T11:32:39;4.60;;;1.50;;
83423;SDS011;73355;49.044;8.686;2023-12-22T11:35:05;6.25;;;1.02;;
83423;SDS011;73355;49.044;8.686;2023-12-22T11:37:32;7.30;;;1.45;;
83423;SDS011;73355;49.044;8.686;2023-12-22T11:40:00;5.43;;;1.20;;
83423;SDS011;73355;49.044;8.686;2023-12-22T11:42:28;4.22;;;1.67;;
83423;SDS011;73355;49.044;8.686;2023-12-22T11:45:01;4.55;;;1.10;;
83423;SDS011;73355;49.044;8.686;2023-12-22T11:47:27;10.13;;;2.40;;
83423;SDS011;73355;49.044;8.686;2023-12-22T11:49:53;6.53;;;2.03;;
83423;SDS011;73355;49.044;8.686;2023-12-22T11:52:24;4.80;;;1.38;;
83423;SDS011;73355;49.044;8.686;2023-12-22T12:00:07;1.95;;;0.60;;
83423;SDS011;73355;49.044;8.686;2023-12-22T12:02:36;3.33;;;0.75;;
83423;SDS011;73355;49.044;8.686;2023-12-22T12:05:06;7.63;;;1.65;;
83423;SDS011;73355;49.044;8.686;2023-12-22T12:07:40;4.75;;;1.00;;
83423;SDS011;73355;49.044;8.686;2023-12-22T12:10:09;5.53;;;0.70;;
83423;SDS011;73355;49.044;8.686;2023-12-22T12:13:10;5.03;;;1.50;;
83423;SDS011;73355;49.044;8.686;2023-12-22T12:15:40;2.35;;;0.82;;
83423;SDS011;73355;49.044;8.686;2023-12-22T12:20:32;2.77;;;0.73;;
83423;SDS011;73355;49.044;8.686;2023-12-22T12:22:57;5.07;;;0.90;;
83423;SDS011;73355;49.044;8.686;2023-12-22T12:25:23;3.45;;;0.77;;
83423;SDS011;73355;49.044;8.686;2023-12-22T12:30:28;1.17;;;0.82;;
83423;SDS011;73355;49.044;8.686;2023-12-22T12:32:54;2.50;;;0.52;;
83423;SDS011;73355;49.044;8.686;2023-12-22T12:35:19;3.25;;;1.20;;
83423;SDS011;73355;49.044;8.686;2023-12-22T12:37:47;4.25;;;0.70;;
83423;SDS011;73355;49.044;8.686;2023-12-22T12:40:12;5.80;;;1.30;;
83423;SDS011;73355;49.044;8.686;2023-12-22T12:42:43;3.00;;;0.70;;
83423;SDS011;73355;49.044;8.686;2023-12-22T12:45:09;1.58;;;0.60;;
83423;SDS011;73355;49.044;8.686;2023-12-22T12:47:34;3.45;;;0.60;;
83423;SDS011;73355;49.044;8.686;2023-12-22T12:50:00;1.40;;;0.70;;
83423;SDS011;73355;49.044;8.686;2023-12-22T12:52:26;2.63;;;0.57;;
83423;SDS011;73355;49.044;8.686;2023-12-22T12:54:52;3.15;;;1.30;;
83423;SDS011;73355;49.044;8.686;2023-12-22T12:57:18;2.75;;;0.60;;
83423;SDS011;73355;49.044;8.686;2023-12-22T12:59:44;4.53;;;1.15;;
83423;SDS011;73355;49.044;8.686;2023-12-22T13:02:11;4.38;;;1.20;;
83423;SDS011;73355;49.044;8.686;2023-12-22T13:04:37;3.28;;;0.90;;
83423;SDS011;73355;49.044;8.686;2023-12-22T13:07:05;4.25;;;0.90;;
83423;SDS011;73355;49.044;8.686;2023-12-22T13:09:48;1.85;;;0.80;;
83423;SDS011;73355;49.044;8.686;2023-12-22T13:12:14;3.78;;;1.20;;
83423;SDS011;73355;49.044;8.686;2023-12-22T13:14:39;1.87;;;0.80;;
83423;SDS011;73355;49.044;8.686;2023-12-22T13:17:05;1.45;;;0.55;;
83423;SDS011;73355;49.044;8.686;2023-12-22T13:19:31;1.05;;;0.60;;
83423;SDS011;73355;49.044;8.686;2023-12-22T13:22:07;2.15;;;0.98;;
83423;SDS011;73355;49.044;8.686;2023-12-22T13:24:33;3.10;;;0.85;;
83423;SDS011;73355;49.044;8.686;2023-12-22T13:26:59;1.30;;;0.60;;
83423;SDS011;73355;49.044;8.686;2023-12-22T13:29:30;1.23;;;0.60;;
83423;SDS011;73355;49.044;8.686;2023-12-22T13:32:19;3.00;;;0.70;;
83423;SDS011;73355;49.044;8.686;2023-12-22T13:34:48;0.85;;;0.40;;
83423;SDS011;73355;49.044;8.686;2023-12-22T13:37:15;1.02;;;0.60;;
83423;SDS011;73355;49.044;8.686;2023-12-22T13:39:43;2.08;;;0.88;;
83423;SDS011;73355;49.044;8.686;2023-12-22T13:42:26;3.33;;;0.52;;
83423;SDS011;73355;49.044;8.686;2023-12-22T13:44:51;1.42;;;0.80;;
83423;SDS011;73355;49.044;8.686;2023-12-22T13:47:18;1.90;;;0.80;;
83423;SDS011;73355;49.044;8.686;2023-12-22T13:49:44;2.05;;;0.70;;
83423;SDS011;73355;49.044;8.686;2023-12-22T13:52:26;3.33;;;0.73;;
83423;SDS011;73355;49.044;8.686;2023-12-22T13:54:59;0.68;;;0.40;;
83423;SDS011;73355;49.044;8.686;2023-12-22T13:57:26;2.10;;;0.65;;
83423;SDS011;73355;49.044;8.686;2023-12-22T13:59:52;1.98;;;0.65;;
83423;SDS011;73355;49.044;8.686;2023-12-22T14:02:23;2.25;;;0.70;;
83423;SDS011;73355;49.044;8.686;2023-12-22T14:04:49;2.35;;;0.80;;
83423;SDS011;73355;49.044;8.686;2023-12-22T14:07:18;0.80;;;0.50;;
83423;SDS011;73355;49.044;8.686;2023-12-22T14:09:44;0.90;;;0.50;;
83423;SDS011;73355;49.044;8.686;2023-12-22T14:12:09;0.90;;;0.55;;
83423;SDS011;73355;49.044;8.686;2023-12-22T14:14:52;1.38;;;0.70;;
83423;SDS011;73355;49.044;8.686;2023-12-22T14:17:19;0.85;;;0.35;;
83423;SDS011;73355;49.044;8.686;2023-12-22T14:19:44;1.48;;;0.93;;
83423;SDS011;73355;49.044;8.686;2023-12-22T14:22:10;0.73;;;0.40;;
83423;SDS011;73355;49.044;8.686;2023-12-22T14:24:35;2.00;;;0.60;;
83423;SDS011;73355;49.044;8.686;2023-12-22T14:27:09;0.97;;;0.60;;
83423;SDS011;73355;49.044;8.686;2023-12-22T14:29:40;1.77;;;0.90;;
83423;SDS011;73355;49.044;8.686;2023-12-22T14:32:06;1.00;;;0.60;;
83423;SDS011;73355;49.044;8.686;2023-12-22T14:34:36;0.55;;;0.40;;
83423;SDS011;73355;49.044;8.686;2023-12-22T14:37:01;0.98;;;0.50;;
83423;SDS011;73355;49.044;8.686;2023-12-22T14:39:33;0.70;;;0.40;;
83423;SDS011;73355;49.044;8.686;2023-12-22T14:42:06;2.05;;;0.80;;
83423;SDS011;73355;49.044;8.686;2023-12-22T14:44:32;1.17;;;0.80;;
83423;SDS011;73355;49.044;8.686;2023-12-22T14:46:57;4.67;;;1.80;;
83423;SDS011;73355;49.044;8.686;2023-12-22T14:49:22;1.80;;;0.80;;
83423;SDS011;73355;49.044;8.686;2023-12-22T14:51:56;2.78;;;1.27;;
83423;SDS011;73355;49.044;8.686;2023-12-22T14:54:30;1.90;;;0.73;;
83423;SDS011;73355;49.044;8.686;2023-12-22T14:56:55;2.85;;;0.93;;
83423;SDS011;73355;49.044;8.686;2023-12-22T14:59:20;1.27;;;0.50;;
83423;SDS011;73355;49.044;8.686;2023-12-22T15:01:45;0.77;;;0.37;;
83423;SDS011;73355;49.044;8.686;2023-12-22T15:04:20;0.80;;;0.50;;
83423;SDS011;73355;49.044;8.686;2023-12-22T15:06:53;0.43;;;0.30;;